Portada
METAR-TAF:

METAR-TAF

Aeroports :

Còrdova, Espanya

latitud: 37-51N, longitud: 004-51W, altitud: 90 m

Observació

L'informe es va fer fa 39 minuts, a les 19:00 UTC
Vent 7 kt del Nord/Nord-Oest
Temperatura 22°C
Humitat 31%
Pressió 1021 hPa
Visibilitat 10 km o més
sense núvols per sota de 1500 mi sense presència de cumulonimbus.

METAR: LEBA 251900Z AUTO 33007KT CAVOK 22/04 Q1021

Hora: 21:39 (19:39 UTC)

Pronòstic

L'informe es va fer fa 5 hores i 39 minuts, a les 14:00 UTC
Pronòstic vàlid del 25 a les 15 UTC al 26 a les 15 UTC
Vent 6 kt del Oest/Nord-Oest
Visibilitat 10 km o més
sense núvols per sota de 1500 mi sense presència de cumulonimbus.
Evolucionant progressivament
l' 26 a les 05 UTC al 26 a les 07 UTC
Vent 10 kt del Est/Nord-Est
Evolucionant progressivament
l' 26 a les 13 UTC al 26 a les 15 UTC
Vent 2 kt amb direcció variable

TAF: LEBA 251400Z 2515/2615 29006KT CAVOK TX29/2614Z TN15/2606Z BECMG 2605/2607 07010KT BECMG 2613/2615 VRB02KT

Observacions i pronòstics meteorològics de més de 4000 aeroports (METAR i TAF).

Les estacions disponibles són els punts grocs i vermells al mapa.

Posi el ratolí al punt desitjat per veure el nom de l'estació.

Feu clic per veure les observacions i els pronòstics meteorològics.

Per canviar el mapa: feu clic els botons verds amb una creu de color negre per apropar; al botó verd amb un guió per allunyar la imatge; o en les fletxes verdes per a mapes adjacents.


METAR-TAF: